Time;durP1;ratioP1;P1;durP2;ratioP2;P2;SDS_P1;SDS_P2;PMS_P1;PMS_P2;Temp;Humidity;BMP_temperature;BMP_pressure;BME280_temperature;BME280_humidity;BME280_pressure;Samples;Min_cycle;Max_cycle;Signal;HPM_P1;HPM_P2
2023/04/10 00:00:44;;;;;;;2.30;0.90;;;16.90;45.80;;;;;;5075043;28;20229;-67
2023/04/10 00:03:11;;;;;;;5.20;1.33;;;17.20;44.70;;;;;;5073617;28;20274;-67
2023/04/10 00:05:39;;;;;;;1.60;0.70;;;17.30;45.00;;;;;;5072760;28;20217;-65
2023/04/10 00:08:06;;;;;;;1.57;1.07;;;17.20;44.50;;;;;;5074768;28;20303;-68
2023/04/10 00:10:33;;;;;;;2.83;1.00;;;17.30;44.80;;;;;;5074795;28;20203;-67
2023/04/10 00:13:02;;;;;;;3.10;0.80;;;17.50;44.60;;;;;;5077339;28;20186;-67
2023/04/10 00:15:30;;;;;;;2.63;0.83;;;17.40;44.00;;;;;;5076030;28;20204;-70
2023/04/10 00:17:57;;;;;;;3.67;1.10;;;17.40;44.70;;;;;;5072439;28;20229;-68
2023/04/10 00:20:25;;;;;;;0.80;0.60;;;17.50;44.30;;;;;;5073772;28;20178;-68
2023/04/10 00:22:52;;;;;;;2.70;0.90;;;17.50;43.60;;;;;;5074465;28;20248;-65
2023/04/10 00:25:21;;;;;;;2.30;1.00;;;17.70;43.60;;;;;;5065158;28;20182;-67
2023/04/10 00:27:49;;;;;;;1.63;0.90;;;17.80;43.90;;;;;;5073315;28;20217;-66
2023/04/10 00:30:16;;;;;;;1.53;0.90;;;17.80;42.50;;;;;;5069310;28;20216;-66
2023/04/10 00:32:44;;;;;;;2.30;1.10;;;17.60;43.10;;;;;;5076032;28;20215;-67
2023/04/10 00:35:11;;;;;;;1.33;0.70;;;17.90;42.60;;;;;;5081467;28;20194;-65
2023/04/10 00:37:39;;;;;;;1.03;0.50;;;17.90;42.60;;;;;;5075794;28;20520;-65
2023/04/10 00:40:07;;;;;;;1.10;0.70;;;18.20;41.80;;;;;;5075309;28;20261;-66
2023/04/10 00:42:34;;;;;;;1.90;0.80;;;18.20;42.20;;;;;;5072304;28;20229;-66
2023/04/10 00:45:02;;;;;;;3.50;0.80;;;18.30;41.50;;;;;;5073419;28;20181;-66
2023/04/10 00:47:30;;;;;;;2.17;0.80;;;18.10;41.60;;;;;;5070308;28;20291;-67
2023/04/10 00:49:59;;;;;;;2.67;0.97;;;18.20;42.10;;;;;;5075251;28;20187;-65
2023/04/10 00:52:26;;;;;;;1.53;0.70;;;18.30;41.00;;;;;;5088461;28;20555;-67
2023/04/10 00:54:54;;;;;;;2.47;0.90;;;18.30;41.10;;;;;;5073523;28;20593;-66
2023/04/10 00:57:21;;;;;;;3.60;0.90;;;18.30;42.10;;;;;;5083138;28;20508;-66
2023/04/10 00:59:50;;;;;;;1.87;0.80;;;18.50;41.80;;;;;;5083111;28;20194;-66
2023/04/10 01:02:18;;;;;;;2.67;1.00;;;18.80;41.10;;;;;;5073849;28;20680;-65
2023/04/10 01:04:47;;;;;;;2.47;0.70;;;18.80;41.40;;;;;;5073903;28;20183;-68
2023/04/10 01:07:47;;;;;;;2.97;0.83;;;18.30;41.80;;;;;;5073425;28;20328;-67
2023/04/10 01:10:46;;;;;;;3.20;0.90;;;18.20;42.10;;;;;;5073709;28;20241;-67
2023/04/10 01:13:34;;;;;;;1.00;0.70;;;18.40;41.40;;;;;;5070095;28;20651;-67
2023/04/10 01:16:03;;;;;;;2.47;0.80;;;18.90;40.40;;;;;;5072573;28;20179;-67
2023/04/10 01:18:40;;;;;;;2.53;0.67;;;18.90;40.10;;;;;;5073644;28;20637;-66
2023/04/10 01:21:10;;;;;;;2.90;0.70;;;18.80;40.40;;;;;;5072716;28;20225;-66
2023/04/10 01:23:42;;;;;;;2.07;0.90;;;18.80;40.70;;;;;;5069379;28;20188;-66
2023/04/10 01:26:11;;;;;;;3.43;1.07;;;19.10;40.40;;;;;;5067662;28;20186;-66
2023/04/10 01:29:02;;;;;;;1.03;0.60;;;19.20;39.20;;;;;;5069039;28;20254;-67
2023/04/10 01:31:43;;;;;;;0.67;0.60;;;18.90;38.60;;;;;;5070129;28;20179;-67
2023/04/10 01:34:23;;;;;;;1.40;0.70;;;18.90;37.90;;;;;;5061792;28;20190;-70
2023/04/10 01:36:59;;;;;;;2.77;0.80;;;19.30;38.50;;;;;;5071401;28;20159;-68
2023/04/10 01:39:29;;;;;;;1.10;0.70;;;19.80;38.20;;;;;;5072319;28;20183;-69
2023/04/10 01:41:58;;;;;;;1.47;0.80;;;20.00;37.10;;;;;;5067947;28;20258;-69
2023/04/10 01:44:29;;;;;;;1.90;1.00;;;20.10;36.80;;;;;;5071154;28;20191;-68
2023/04/10 01:46:57;;;;;;;1.13;0.60;;;19.80;37.30;;;;;;5064119;28;20262;-68
2023/04/10 01:49:27;;;;;;;2.70;0.60;;;19.70;37.60;;;;;;5071949;28;20638;-68
2023/04/10 01:51:58;;;;;;;1.63;0.60;;;20.00;37.60;;;;;;5073114;28;20691;-68
2023/04/10 01:54:31;;;;;;;1.53;0.70;;;20.30;36.60;;;;;;5073003;28;20282;-72
2023/04/10 01:57:03;;;;;;;0.70;0.60;;;20.40;37.10;;;;;;5072939;28;20210;-67
2023/04/10 01:59:30;;;;;;;1.27;0.80;;;20.40;36.00;;;;;;5072860;28;20515;-68
2023/04/10 02:02:01;;;;;;;0.60;0.53;;;20.30;36.00;;;;;;5069809;28;20226;-71
2023/04/10 02:04:28;;;;;;;1.60;0.60;;;20.80;35.80;;;;;;5071535;28;20207;-70
2023/04/10 02:07:25;;;;;;;0.87;0.70;;;21.00;34.50;;;;;;5072947;28;20510;-69
2023/04/10 02:10:21;;;;;;;1.60;0.80;;;20.60;35.20;;;;;;5072640;28;20276;-72
2023/04/10 02:12:55;;;;;;;2.73;0.80;;;19.80;36.90;;;;;;5072823;28;20164;-68
2023/04/10 02:15:25;;;;;;;2.53;0.90;;;19.60;37.50;;;;;;5072818;28;20205;-72
2023/04/10 02:17:55;;;;;;;1.37;0.73;;;19.90;36.20;;;;;;5072728;28;20183;-70
2023/04/10 02:20:25;;;;;;;1.13;0.70;;;20.10;35.70;;;;;;5063912;28;20179;-70
2023/04/10 02:22:53;;;;;;;1.60;0.73;;;20.60;35.50;;;;;;5055477;28;20243;-69
2023/04/10 02:25:21;;;;;;;3.40;0.90;;;21.20;34.70;;;;;;5072715;28;20187;-72
2023/04/10 02:27:51;;;;;;;1.17;0.80;;;21.40;34.10;;;;;;5072276;28;20653;-68
2023/04/10 02:30:19;;;;;;;2.00;0.90;;;21.00;35.10;;;;;;5072417;28;20175;-68
2023/04/10 02:32:46;;;;;;;1.87;0.90;;;21.50;34.90;;;;;;5072727;28;20190;-70
2023/04/10 02:35:13;;;;;;;1.33;0.80;;;21.80;34.20;;;;;;5058004;28;20179;-69
2023/04/10 02:37:41;;;;;;;2.20;0.80;;;22.00;32.90;;;;;;5066480;28;20601;-66
2023/04/10 02:40:10;;;;;;;3.17;0.70;;;21.70;33.30;;;;;;5072578;28;20673;-67
2023/04/10 02:42:37;;;;;;;2.30;0.70;;;21.20;33.70;;;;;;5056287;28;20273;-68
2023/04/10 02:45:05;;;;;;;0.93;0.53;;;22.00;33.80;;;;;;5071049;28;20706;-69
2023/04/10 02:47:32;;;;;;;2.40;0.80;;;21.80;32.40;;;;;;5071131;28;20229;-70
2023/04/10 02:49:59;;;;;;;2.10;0.80;;;21.50;32.50;;;;;;5072505;28;20538;-68
2023/04/10 02:52:27;;;;;;;2.63;0.70;;;22.10;31.60;;;;;;5070963;28;20244;-67
2023/04/10 02:54:54;;;;;;;1.57;0.60;;;22.60;32.00;;;;;;5067024;28;20210;-68
2023/04/10 02:57:21;;;;;;;1.57;0.60;;;22.90;31.50;;;;;;5072330;28;20198;-68
2023/04/10 02:59:52;;;;;;;1.43;0.80;;;22.60;31.40;;;;;;5072320;28;20175;-68
2023/04/10 03:02:20;;;;;;;2.30;0.90;;;21.60;32.70;;;;;;5072308;28;20222;-68
2023/04/10 03:04:47;;;;;;;1.33;0.70;;;20.80;33.30;;;;;;5072015;28;20186;-68
2023/04/10 03:07:15;;;;;;;1.60;0.80;;;20.30;34.40;;;;;;5072419;28;20221;-69
2023/04/10 03:09:43;;;;;;;1.80;1.07;;;20.80;34.50;;;;;;5072034;28;20231;-69
2023/04/10 03:12:10;;;;;;;4.30;1.70;;;21.20;32.60;;;;;;5066556;28;20214;-69
2023/04/10 03:14:38;;;;;;;2.53;0.90;;;20.90;31.90;;;;;;5072081;28;20174;-71
2023/04/10 03:17:06;;;;;;;1.70;0.90;;;20.80;32.70;;;;;;5072025;28;20186;-69
2023/04/10 03:19:33;;;;;;;2.17;0.70;;;21.00;32.90;;;;;;5071849;28;20191;-66
2023/04/10 03:22:01;;;;;;;1.57;0.70;;;21.70;32.60;;;;;;5072019;28;20218;-66
2023/04/10 03:24:29;;;;;;;1.90;0.80;;;21.50;32.40;;;;;;5071947;28;20179;-67
2023/04/10 03:26:56;;;;;;;1.53;0.60;;;22.80;31.10;;;;;;5070654;28;20187;-69
2023/04/10 03:29:23;;;;;;;1.43;0.60;;;23.10;30.60;;;;;;5055137;28;20195;-66
2023/04/10 03:31:51;;;;;;;0.70;0.43;;;23.70;29.00;;;;;;5071260;28;20184;-69
2023/04/10 03:34:18;;;;;;;4.37;0.57;;;23.70;29.00;;;;;;5072371;28;20539;-69
2023/04/10 03:36:47;;;;;;;1.27;0.80;;;24.10;29.10;;;;;;5075839;28;20222;-69
2023/04/10 03:39:14;;;;;;;1.83;0.63;;;24.00;28.10;;;;;;5076037;28;20576;-68
2023/04/10 03:41:41;;;;;;;5.40;0.80;;;23.60;28.80;;;;;;5075362;28;20653;-69
2023/04/10 03:44:09;;;;;;;1.53;0.60;;;23.10;30.30;;;;;;5072696;28;20180;-71
2023/04/10 03:46:36;;;;;;;0.60;0.50;;;23.00;29.50;;;;;;5070605;28;20179;-71
2023/04/10 03:49:04;;;;;;;2.03;0.57;;;23.30;29.40;;;;;;5075252;28;20194;-70
2023/04/10 03:51:31;;;;;;;1.20;0.50;;;24.20;28.60;;;;;;5074916;28;20183;-73
2023/04/10 03:53:58;;;;;;;2.90;0.90;;;25.10;27.80;;;;;;5075318;28;20187;-70
2023/04/10 03:56:26;;;;;;;3.83;0.87;;;26.00;28.40;;;;;;5075374;28;20176;-67
2023/04/10 03:58:53;;;;;;;5.40;1.10;;;25.30;29.60;;;;;;5074842;28;20198;-67
2023/04/10 04:01:21;;;;;;;2.67;1.00;;;25.10;30.60;;;;;;5075230;28;20226;-68
2023/04/10 04:03:51;;;;;;;2.90;1.07;;;24.30;31.30;;;;;;5071894;28;20248;-71
2023/04/10 04:06:19;;;;;;;3.03;1.00;;;23.50;32.50;;;;;;5072134;28;20189;-68
2023/04/10 04:08:46;;;;;;;2.93;1.20;;;22.60;34.30;;;;;;5073113;28;20352;-69
2023/04/10 04:11:13;;;;;;;2.77;1.10;;;22.70;34.60;;;;;;5075096;28;20187;-70
2023/04/10 04:13:40;;;;;;;2.30;0.87;;;23.80;33.00;;;;;;5074637;28;20563;-71
2023/04/10 04:16:09;;;;;;;1.90;0.93;;;24.40;32.30;;;;;;5075015;28;20176;-71
2023/04/10 04:18:37;;;;;;;2.23;1.10;;;24.60;32.10;;;;;;5075059;28;20191;-71
2023/04/10 04:21:04;;;;;;;3.37;0.83;;;24.80;31.60;;;;;;5066374;28;20203;-71
2023/04/10 04:23:31;;;;;;;2.97;0.90;;;25.80;30.30;;;;;;5073428;28;20187;-71
2023/04/10 04:25:59;;;;;;;1.57;0.77;;;26.30;29.60;;;;;;5067171;28;20182;-70
2023/04/10 04:28:26;;;;;;;4.43;0.83;;;26.40;29.90;;;;;;5073694;28;20545;-67
2023/04/10 04:30:54;;;;;;;4.60;1.13;;;27.00;28.80;;;;;;5074305;28;20183;-69
2023/04/10 04:33:21;;;;;;;3.63;0.70;;;26.40;30.30;;;;;;5074476;28;20183;-68
2023/04/10 04:35:49;;;;;;;3.73;0.90;;;26.30;30.30;;;;;;5074355;28;20650;-68
2023/04/10 04:38:18;;;;;;;3.47;0.93;;;26.10;31.80;;;;;;5070589;28;20195;-69
2023/04/10 04:40:46;;;;;;;2.60;0.90;;;25.80;31.40;;;;;;5074688;28;20180;-70
2023/04/10 04:43:13;;;;;;;2.20;0.70;;;26.70;31.20;;;;;;5064582;28;20280;-70
2023/04/10 04:45:41;;;;;;;2.07;0.80;;;27.10;29.90;;;;;;5082861;28;20514;-69
2023/04/10 04:48:08;;;;;;;1.90;0.70;;;26.90;29.90;;;;;;5070873;28;20218;-69
2023/04/10 04:50:35;;;;;;;1.80;0.70;;;26.40;30.10;;;;;;5066355;28;20183;-70
2023/04/10 04:53:02;;;;;;;3.33;0.90;;;26.60;30.90;;;;;;5073138;28;20179;-69
2023/04/10 04:55:30;;;;;;;3.60;0.70;;;26.30;30.70;;;;;;5073697;28;20187;-71
2023/04/10 04:57:57;;;;;;;4.20;0.70;;;26.30;30.20;;;;;;5073910;28;20180;-70
2023/04/10 05:00:24;;;;;;;1.93;1.00;;;26.30;30.10;;;;;;5072797;28;20175;-71
2023/04/10 05:02:52;;;;;;;6.07;0.90;;;26.90;30.30;;;;;;5074026;28;20615;-71
2023/04/10 05:05:19;;;;;;;2.13;0.77;;;26.80;30.40;;;;;;5073776;28;20175;-70
2023/04/10 05:07:47;;;;;;;2.80;1.07;;;26.80;30.30;;;;;;5073276;28;20168;-69
2023/04/10 05:10:14;;;;;;;1.30;0.70;;;24.70;32.20;;;;;;5065274;28;20331;-68
2023/04/10 05:12:42;;;;;;;3.30;1.07;;;23.60;34.60;;;;;;5071022;28;20516;-70
2023/04/10 05:15:09;;;;;;;1.70;0.90;;;24.30;33.70;;;;;;5073007;28;20175;-66
2023/04/10 05:17:37;;;;;;;4.13;0.93;;;23.70;34.60;;;;;;5071916;28;20171;-67
2023/04/10 05:20:05;;;;;;;1.63;1.00;;;23.10;36.20;;;;;;5073618;28;20191;-68
2023/04/10 05:22:32;;;;;;;5.60;1.37;;;22.90;36.40;;;;;;5070830;28;20680;-67
2023/04/10 05:25:00;;;;;;;4.77;1.10;;;22.70;37.50;;;;;;5073688;28;20183;-67
2023/04/10 05:27:27;;;;;;;2.47;0.97;;;22.40;37.70;;;;;;5071687;28;20534;-68
2023/04/10 05:29:55;;;;;;;4.80;1.40;;;22.50;37.70;;;;;;5071375;28;20175;-68
2023/04/10 05:32:22;;;;;;;3.53;1.57;;;23.00;37.40;;;;;;5073243;28;20667;-67
2023/04/10 05:34:49;;;;;;;2.40;1.00;;;23.00;36.60;;;;;;5072695;28;20179;-67
2023/04/10 05:37:16;;;;;;;1.50;0.80;;;22.40;37.30;;;;;;5068945;28;20261;-67
2023/04/10 05:39:44;;;;;;;1.50;0.80;;;22.00;38.90;;;;;;5064264;28;20641;-66
2023/04/10 05:42:12;;;;;;;2.60;0.97;;;21.70;39.20;;;;;;5058949;28;20214;-67
2023/04/10 05:44:39;;;;;;;1.73;1.00;;;21.50;39.50;;;;;;5072350;28;20245;-66
2023/04/10 05:47:07;;;;;;;1.83;0.80;;;21.30;39.60;;;;;;5070892;28;20210;-67
2023/04/10 05:49:34;;;;;;;2.40;1.00;;;20.90;39.60;;;;;;5072992;28;20168;-68
2023/04/10 05:52:02;;;;;;;4.20;1.27;;;20.90;40.50;;;;;;5071984;28;20184;-66
2023/04/10 05:54:29;;;;;;;2.70;1.00;;;20.90;40.90;;;;;;5072864;28;20288;-67
2023/04/10 05:56:56;;;;;;;3.60;1.03;;;20.70;41.80;;;;;;5070266;28;20186;-67
2023/04/10 05:59:24;;;;;;;2.63;0.90;;;20.50;42.30;;;;;;5072548;28;20180;-67
2023/04/10 06:01:51;;;;;;;1.87;0.70;;;20.50;42.40;;;;;;5072160;28;20290;-68
2023/04/10 06:04:20;;;;;;;2.53;0.90;;;20.40;42.60;;;;;;5072682;28;20175;-68
2023/04/10 06:06:47;;;;;;;3.03;0.93;;;20.60;42.30;;;;;;5072492;28;20259;-67
2023/04/10 06:09:15;;;;;;;4.10;0.90;;;20.50;42.90;;;;;;5072544;28;20595;-67
2023/04/10 06:11:42;;;;;;;2.87;1.13;;;20.30;43.30;;;;;;5072568;28;20638;-67
2023/04/10 06:14:09;;;;;;;5.90;1.40;;;20.30;43.70;;;;;;5072035;28;20602;-66
2023/04/10 06:16:36;;;;;;;1.93;1.10;;;20.30;44.00;;;;;;5072590;28;20190;-66
2023/04/10 06:19:04;;;;;;;3.17;1.17;;;20.40;43.50;;;;;;5072762;28;20176;-68
2023/04/10 06:21:31;;;;;;;10.97;1.57;;;20.80;43.20;;;;;;5073300;28;20294;-67
2023/04/10 06:23:59;;;;;;;5.40;1.07;;;22.30;40.60;;;;;;5071936;28;20225;-69
2023/04/10 06:26:26;;;;;;;3.90;0.90;;;23.70;37.50;;;;;;5072498;28;20603;-67
2023/04/10 06:28:54;;;;;;;3.93;1.00;;;23.00;38.20;;;;;;5071577;28;20189;-67
2023/04/10 06:31:24;;;;;;;2.53;1.13;;;23.10;38.40;;;;;;5070862;28;20286;-66
2023/04/10 06:33:51;;;;;;;4.87;1.10;;;22.30;39.70;;;;;;5068730;28;20179;-66
2023/04/10 06:36:19;;;;;;;5.47;1.43;;;21.90;41.20;;;;;;5066190;28;20595;-67
2023/04/10 06:38:46;;;;;;;2.73;1.10;;;21.90;41.50;;;;;;5068055;28;20175;-68
2023/04/10 06:41:14;;;;;;;8.37;1.20;;;23.30;38.30;;;;;;5063612;28;20696;-67
2023/04/10 06:43:41;;;;;;;2.07;0.90;;;23.80;36.90;;;;;;5068056;28;20179;-67
2023/04/10 06:46:09;;;;;;;6.23;0.90;;;24.40;35.90;;;;;;5066810;28;20184;-67
2023/04/10 06:48:36;;;;;;;2.07;0.87;;;24.50;35.40;;;;;;5068095;28;20204;-67
2023/04/10 06:51:04;;;;;;;2.70;1.00;;;25.00;34.60;;;;;;5069061;28;20210;-66
2023/04/10 06:53:31;;;;;;;1.40;0.97;;;24.40;35.20;;;;;;5067638;28;20167;-69
2023/04/10 06:55:58;;;;;;;3.33;1.20;;;23.60;36.90;;;;;;5069902;28;20171;-66
2023/04/10 06:58:26;;;;;;;6.70;1.30;;;22.50;39.30;;;;;;5073567;28;20262;-67
2023/04/10 07:00:53;;;;;;;4.30;1.10;;;21.80;41.00;;;;;;5075117;28;20587;-68
2023/04/10 07:03:20;;;;;;;12.97;1.70;;;21.30;42.30;;;;;;5071190;28;20191;-67
2023/04/10 07:05:48;;;;;;;5.67;1.07;;;21.30;42.80;;;;;;5071651;28;20186;-69
2023/04/10 07:08:16;;;;;;;6.77;1.40;;;20.80;44.20;;;;;;5071440;28;20178;-70
2023/04/10 07:10:43;;;;;;;4.30;1.30;;;20.60;45.30;;;;;;5084049;28;20276;-69
2023/04/10 07:13:10;;;;;;;3.80;1.10;;;20.30;46.50;;;;;;5076142;28;20176;-70
2023/04/10 07:15:38;;;;;;;2.63;1.00;;;19.90;46.20;;;;;;5075211;28;20541;-72
2023/04/10 07:18:06;;;;;;;2.10;0.83;;;19.80;46.70;;;;;;5075025;28;20190;-70
2023/04/10 07:20:33;;;;;;;8.33;1.27;;;19.80;46.60;;;;;;5075120;28;20275;-69
2023/04/10 07:23:00;;;;;;;4.60;1.33;;;19.70;46.70;;;;;;5074296;28;20225;-69
2023/04/10 07:25:27;;;;;;;5.67;1.80;;;19.50;47.70;;;;;;5073828;28;20175;-71
2023/04/10 07:27:55;;;;;;;3.97;1.33;;;19.30;48.30;;;;;;5065212;28;20195;-70
2023/04/10 07:30:22;;;;;;;5.90;1.20;;;19.20;48.20;;;;;;5063301;28;20191;-71
2023/04/10 07:32:51;;;;;;;2.73;1.40;;;19.00;48.70;;;;;;5072803;28;20538;-71
2023/04/10 07:35:19;;;;;;;3.23;1.07;;;19.00;49.60;;;;;;5072025;28;20258;-70
2023/04/10 07:37:50;;;;;;;7.77;1.50;;;18.90;49.60;;;;;;5070438;28;20179;-70
2023/04/10 07:40:17;;;;;;;3.17;1.47;;;18.80;50.10;;;;;;5074476;28;20637;-69
2023/04/10 07:42:45;;;;;;;4.87;1.50;;;18.70;50.60;;;;;;5073891;28;20218;-70
2023/04/10 07:45:12;;;;;;;3.30;1.90;;;18.50;50.50;;;;;;5078062;28;20546;-71
2023/04/10 07:47:40;;;;;;;9.37;2.10;;;18.40;50.90;;;;;;5065367;28;20186;-70
2023/04/10 07:50:09;;;;;;;7.50;2.00;;;18.30;50.80;;;;;;5070204;28;20188;-70
2023/04/10 07:52:36;;;;;;;9.93;2.10;;;18.10;50.60;;;;;;5077712;28;20222;-66
2023/04/10 07:55:04;;;;;;;8.67;2.17;;;18.00;51.60;;;;;;5069578;28;20186;-67
2023/04/10 07:57:31;;;;;;;5.50;1.90;;;18.00;51.80;;;;;;5072716;28;20195;-69
2023/04/10 07:59:58;;;;;;;5.90;2.50;;;17.90;51.50;;;;;;5073389;28;20249;-68
2023/04/10 08:02:26;;;;;;;6.47;2.43;;;17.80;52.20;;;;;;5073026;28;20253;-68
2023/04/10 08:04:53;;;;;;;6.20;1.97;;;17.80;52.20;;;;;;5071749;28;20267;-66
2023/04/10 08:07:23;;;;;;;4.37;1.77;;;17.70;52.20;;;;;;5073778;28;20277;-66
2023/04/10 08:09:51;;;;;;;3.83;1.60;;;17.60;52.40;;;;;;5070643;28;20230;-67
2023/04/10 08:12:18;;;;;;;4.63;2.07;;;17.60;53.10;;;;;;5073229;28;20680;-67
2023/04/10 08:14:45;;;;;;;5.73;2.17;;;17.50;53.30;;;;;;5067390;28;20183;-66
2023/04/10 08:17:13;;;;;;;6.00;2.00;;;17.40;53.60;;;;;;5070409;28;20274;-66
2023/04/10 08:19:43;;;;;;;4.17;1.80;;;17.30;54.20;;;;;;5069474;28;20176;-67
2023/04/10 08:22:11;;;;;;;4.67;1.70;;;17.30;54.30;;;;;;5073765;28;20546;-66
2023/04/10 08:24:38;;;;;;;6.20;2.30;;;17.20;54.90;;;;;;5071624;28;20203;-66
2023/04/10 08:27:05;;;;;;;5.50;2.30;;;17.20;54.70;;;;;;5070136;28;20645;-67
2023/04/10 08:29:33;;;;;;;5.87;2.30;;;17.10;54.60;;;;;;5072539;28;20184;-68
2023/04/10 08:32:00;;;;;;;7.90;3.30;;;17.10;54.90;;;;;;5071751;28;20322;-67
2023/04/10 08:34:27;;;;;;;8.27;3.97;;;16.90;55.40;;;;;;5070491;28;20657;-66
2023/04/10 08:36:55;;;;;;;8.47;3.50;;;16.90;56.40;;;;;;5071655;28;20180;-64
2023/04/10 08:39:22;;;;;;;8.60;4.40;;;16.80;56.80;;;;;;5072112;28;20206;-68
2023/04/10 08:41:49;;;;;;;8.07;3.80;;;16.80;56.30;;;;;;5073147;28;20216;-65
2023/04/10 08:44:17;;;;;;;6.33;3.57;;;16.70;56.90;;;;;;5070041;28;20266;-67
2023/04/10 08:46:45;;;;;;;8.07;3.27;;;16.70;57.40;;;;;;5069310;28;20220;-67
2023/04/10 08:49:31;;;;;;;7.87;3.90;;;16.60;57.90;;;;;;5068963;28;20199;-68
2023/04/10 08:52:01;;;;;;;8.93;5.10;;;16.60;58.30;;;;;;5073830;28;20564;-66
2023/04/10 08:54:32;;;;;;;7.77;4.13;;;16.50;58.40;;;;;;5068309;28;20586;-65
2023/04/10 08:57:00;;;;;;;9.67;3.40;;;16.40;58.70;;;;;;5071267;28;20224;-70
2023/04/10 08:59:29;;;;;;;6.07;3.30;;;16.30;58.70;;;;;;5071536;28;20652;-68
2023/04/10 09:01:58;;;;;;;5.80;3.17;;;16.30;58.70;;;;;;5067030;28;20261;-67
2023/04/10 09:04:26;;;;;;;9.97;3.50;;;16.30;58.60;;;;;;5071643;28;20210;-69
2023/04/10 09:06:53;;;;;;;6.87;3.47;;;16.30;57.70;;;;;;5071201;28;20241;-68
2023/04/10 09:09:21;;;;;;;7.07;3.67;;;16.30;58.40;;;;;;5071943;28;20248;-67
2023/04/10 09:11:54;;;;;;;7.73;3.77;;;16.30;59.50;;;;;;5072959;28;20198;-68
2023/04/10 09:14:23;;;;;;;6.47;3.60;;;16.30;60.00;;;;;;5070366;28;20186;-70
2023/04/10 09:16:52;;;;;;;9.00;4.03;;;16.30;59.50;;;;;;5072504;28;20193;-67
2023/04/10 09:19:32;;;;;;;6.17;3.20;;;16.30;59.10;;;;;;5072839;28;20701;-67
2023/04/10 09:22:00;;;;;;;10.23;3.87;;;16.30;58.20;;;;;;5067708;28;20298;-69
2023/04/10 09:24:27;;;;;;;7.17;3.90;;;16.30;58.30;;;;;;5071770;28;20631;-68
2023/04/10 09:26:55;;;;;;;8.30;3.90;;;16.30;58.80;;;;;;5070405;28;20186;-71
2023/04/10 09:29:25;;;;;;;8.80;4.50;;;16.30;58.30;;;;;;5070013;28;20233;-68
2023/04/10 09:31:52;;;;;;;6.83;3.97;;;16.30;58.60;;;;;;5071917;28;20187;-68
2023/04/10 09:34:21;;;;;;;8.00;4.70;;;16.20;59.60;;;;;;5069784;28;20712;-67
2023/04/10 09:37:17;;;;;;;10.50;4.87;;;16.20;59.90;;;;;;5070491;28;20244;-70
2023/04/10 09:39:44;;;;;;;11.33;4.30;;;16.10;59.80;;;;;;5064459;28;20209;-69
2023/04/10 09:42:12;;;;;;;6.27;3.40;;;16.10;60.40;;;;;;5067305;28;20540;-68
2023/04/10 09:44:41;;;;;;;7.70;3.97;;;16.00;58.70;;;;;;5065871;28;20187;-67
2023/04/10 09:47:14;;;;;;;4.87;2.80;;;16.00;59.00;;;;;;5071710;28;20201;-68
2023/04/10 09:49:52;;;;;;;7.60;2.80;;;16.00;56.90;;;;;;5070167;28;20633;-70
2023/04/10 09:52:25;;;;;;;3.60;2.67;;;16.20;53.10;;;;;;5069300;28;20687;-69
2023/04/10 09:54:54;;;;;;;4.43;2.80;;;16.20;54.10;;;;;;5067840;28;20607;-70
2023/04/10 09:57:22;;;;;;;3.10;2.00;;;16.20;53.30;;;;;;5067125;28;20192;-71
2023/04/10 09:59:54;;;;;;;4.27;2.10;;;16.10;51.00;;;;;;5069943;28;20191;-70
2023/04/10 10:02:23;;;;;;;3.07;1.83;;;16.20;49.60;;;;;;5070989;28;20677;-66
2023/04/10 10:04:51;;;;;;;2.37;1.80;;;16.30;49.00;;;;;;5071372;28;20181;-68
2023/04/10 10:07:22;;;;;;;3.53;1.70;;;16.30;48.40;;;;;;5071562;28;20203;-71
2023/04/10 10:09:51;;;;;;;2.97;1.70;;;16.20;47.60;;;;;;5069085;28;20252;-72
2023/04/10 10:13:01;;;;;;;3.27;1.80;;;16.20;47.30;;;;;;5071768;28;20193;-69
2023/04/10 10:16:00;;;;;;;2.70;1.73;;;16.20;47.90;;;;;;5047529;28;20249;-71
2023/04/10 10:18:36;;;;;;;5.00;1.73;;;16.20;47.30;;;;;;5062248;28;20186;-69
2023/04/10 10:21:04;;;;;;;3.43;1.67;;;16.10;48.20;;;;;;5069827;28;20216;-71
2023/04/10 10:23:32;;;;;;;2.83;1.47;;;16.10;47.60;;;;;;5070131;28;20664;-72
2023/04/10 10:26:01;;;;;;;3.80;1.63;;;16.00;47.50;;;;;;5067907;28;20178;-70
2023/04/10 10:28:30;;;;;;;4.30;1.60;;;16.00;47.30;;;;;;5068983;28;20183;-71
2023/04/10 10:30:58;;;;;;;3.00;1.73;;;16.00;47.90;;;;;;5070610;28;20538;-69
2023/04/10 10:33:28;;;;;;;2.50;1.50;;;15.90;47.60;;;;;;5068670;28;20236;-67
2023/04/10 10:35:59;;;;;;;2.70;1.53;;;16.00;47.10;;;;;;5071089;28;20665;-69
2023/04/10 10:38:28;;;;;;;5.97;1.20;;;16.00;47.30;;;;;;5071302;28;20186;-65
2023/04/10 10:41:12;;;;;;;2.20;1.33;;;15.90;47.40;;;;;;5066943;28;20178;-68
2023/04/10 10:44:08;;;;;;;2.80;1.40;;;15.90;47.90;;;;;;5068664;28;20222;-66
2023/04/10 10:47:04;;;;;;;2.93;1.70;;;15.90;47.50;;;;;;5050463;28;20276;-66
2023/04/10 10:49:53;;;;;;;2.10;1.20;;;15.80;47.90;;;;;;5070363;28;20190;-70
2023/04/10 10:52:44;;;;;;;2.70;1.40;;;15.80;47.70;;;;;;5070292;28;20187;-69
2023/04/10 10:55:23;;;;;;;2.57;1.40;;;15.80;47.70;;;;;;5069635;28;20609;-66
2023/04/10 10:57:51;;;;;;;3.30;1.10;;;15.80;48.20;;;;;;5071353;28;20209;-65
2023/04/10 11:00:23;;;;;;;3.20;1.30;;;15.80;48.10;;;;;;5061497;28;20180;-64
2023/04/10 11:03:11;;;;;;;3.80;1.37;;;15.70;48.30;;;;;;5069387;28;20214;-64
2023/04/10 11:05:57;;;;;;;2.17;1.27;;;15.70;48.60;;;;;;5064815;28;20234;-64
2023/04/10 11:08:38;;;;;;;1.43;1.30;;;15.70;48.90;;;;;;5071733;28;20542;-65
2023/04/10 11:11:07;;;;;;;2.27;1.30;;;15.60;48.90;;;;;;5068345;28;20276;-65
2023/04/10 11:13:37;;;;;;;3.17;1.30;;;15.60;49.00;;;;;;5069225;28;20538;-65
2023/04/10 11:16:07;;;;;;;3.17;1.40;;;15.50;49.30;;;;;;5068691;28;20176;-64
2023/04/10 11:18:46;;;;;;;4.77;1.30;;;15.50;49.50;;;;;;5072031;28;20183;-64
2023/04/10 11:21:16;;;;;;;1.50;1.40;;;15.50;49.60;;;;;;5070206;28;20224;-64
2023/04/10 11:23:53;;;;;;;2.80;1.17;;;15.50;50.10;;;;;;5070657;28;20187;-67
2023/04/10 11:26:42;;;;;;;2.37;1.50;;;15.40;50.10;;;;;;5059865;28;20198;-66
2023/04/10 11:29:27;;;;;;;2.10;1.10;;;15.40;50.40;;;;;;5070894;28;20210;-67
2023/04/10 11:31:59;;;;;;;3.30;1.40;;;15.40;50.60;;;;;;5061810;28;20190;-64
2023/04/10 11:34:29;;;;;;;2.57;1.47;;;15.40;50.20;;;;;;5070954;28;20530;-65
2023/04/10 11:36:57;;;;;;;3.33;1.30;;;15.40;50.60;;;;;;5070946;28;20194;-63
2023/04/10 11:39:25;;;;;;;3.97;1.30;;;15.40;50.70;;;;;;5070717;28;20267;-65
2023/04/10 11:41:56;;;;;;;3.03;1.53;;;15.40;50.50;;;;;;5068024;28;20255;-66
2023/04/10 11:44:28;;;;;;;3.67;1.50;;;15.40;50.50;;;;;;5072510;28;20669;-65
2023/04/10 11:46:56;;;;;;;2.10;1.40;;;15.40;50.70;;;;;;5067896;28;20689;-66
2023/04/10 11:49:26;;;;;;;1.37;1.10;;;15.40;50.80;;;;;;5070090;28;20187;-65
2023/04/10 11:51:54;;;;;;;1.10;1.00;;;15.50;51.00;;;;;;5064321;28;20664;-65
2023/04/10 11:54:29;;;;;;;2.53;1.20;;;15.50;51.40;;;;;;5071662;28;20171;-65
2023/04/10 11:57:05;;;;;;;1.70;1.20;;;15.50;50.90;;;;;;5074324;28;20175;-67
2023/04/10 11:59:33;;;;;;;2.43;1.20;;;15.50;50.70;;;;;;5073070;28;20190;-64
2023/04/10 12:02:14;;;;;;;5.07;1.27;;;15.50;50.80;;;;;;5072468;28;20298;-65
2023/04/10 12:04:43;;;;;;;2.07;1.17;;;15.40;50.90;;;;;;5075461;28;20179;-65
2023/04/10 12:07:10;;;;;;;6.87;1.23;;;15.40;51.30;;;;;;5073200;28;20667;-66
2023/04/10 12:09:38;;;;;;;1.83;1.00;;;15.40;51.40;;;;;;5073391;28;20354;-65
2023/04/10 12:12:08;;;;;;;3.37;1.27;;;15.50;51.80;;;;;;5075021;28;20301;-66
2023/04/10 12:14:38;;;;;;;2.83;1.20;;;15.50;51.80;;;;;;5074866;28;20197;-65
2023/04/10 12:17:11;;;;;;;1.90;1.20;;;15.40;51.60;;;;;;5086365;28;20661;-64
2023/04/10 12:19:39;;;;;;;4.27;1.50;;;15.40;51.50;;;;;;5074943;28;20184;-66
2023/04/10 12:22:07;;;;;;;2.63;1.17;;;15.40;51.50;;;;;;5074591;28;20572;-66
2023/04/10 12:24:52;;;;;;;3.43;1.13;;;15.40;51.70;;;;;;5074536;28;20186;-63
2023/04/10 12:27:28;;;;;;;2.23;1.23;;;15.40;51.60;;;;;;5074540;28;20190;-71
2023/04/10 12:29:57;;;;;;;2.17;1.40;;;15.40;51.60;;;;;;5074309;28;20201;-68
2023/04/10 12:32:28;;;;;;;3.80;1.10;;;15.40;51.90;;;;;;5074391;28;20524;-69
2023/04/10 12:34:57;;;;;;;3.33;1.20;;;15.30;51.90;;;;;;5074001;28;20172;-69
2023/04/10 12:37:50;;;;;;;3.80;1.17;;;15.30;52.00;;;;;;5072781;28;20179;-70
2023/04/10 12:40:19;;;;;;;2.47;1.40;;;15.30;51.80;;;;;;5074371;28;20199;-71
2023/04/10 12:42:46;;;;;;;4.97;1.50;;;15.30;51.70;;;;;;5074389;28;20215;-68
2023/04/10 12:45:14;;;;;;;2.57;1.20;;;15.30;52.00;;;;;;5073949;28;20190;-70
2023/04/10 12:47:52;;;;;;;3.13;1.20;;;15.20;52.40;;;;;;5073861;28;20195;-70
2023/04/10 12:50:20;;;;;;;2.07;1.30;;;15.20;52.40;;;;;;5078601;28;20253;-72
2023/04/10 12:53:09;;;;;;;3.20;1.33;;;15.10;52.70;;;;;;5072526;28;20197;-70
2023/04/10 12:55:37;;;;;;;2.40;1.57;;;15.10;52.70;;;;;;5073912;28;20186;-71
2023/04/10 12:58:21;;;;;;;2.67;1.10;;;15.00;52.80;;;;;;5074602;28;20190;-69
2023/04/10 13:00:50;;;;;;;4.93;1.30;;;15.00;52.90;;;;;;5078706;28;20183;-69